Saint John, ND (58369)

6:21 PM CDT on July 30, 2014 (GMT -0500)
RAWS TURTLE MOUNTAIN ND US (MTMTN8) Elev 1858 ft | 48.81 °N, 99.84 °W | Change Station

Current weather conditions updated 59 minutes ago

Clear
Clear
79 °F
Feels Like 79 °F
N
9
Wind Variable Wind from NW
Gusts 18.0 mph

Tomorrow is forecast to be nearly the same temperature as today.

Today
High -- | Low -- °F
--% Chance of Precip.
Yesterday
High -- | Low -- °F
Precip. -- in
6:09 AM 9:20 PM
Waxing Crescent, 14% visible
Pressure 30.09 in
Visibility 10.0 miles
Clouds Clear
Heat Index 79 °F
Dew Point 50 °F
Humidity 37%
Rainfall 0.00 in
Snow Depth Not available.
UV 3 out of 12
Pollen 6.70 out of 12
Air Quality Not available.
Flu Activity Not available.
METAR KRUG 302315Z AUTO 33008KT 10SM CLR 24/15 A3009 RMK AO2

More Conditions Fewer Conditions

Pressure 30.09 in
Visibility 10.0 miles
Clouds Clear
Heat Index 79 °F
Dew Point 50 °F
Humidity 37%
Rainfall 0.00 in
Snow Depth Not available.
UV 3 out of 12
Pollen 6.70 out of 12
Air Quality Not available.
Flu Activity Not available.
METAR KRUG 302315Z AUTO 33008KT 10SM CLR 24/15 A3009 RMK AO2

More Conditions Fewer Conditions

10-Day Weather Forecast

Almanac

Astronomy

Jul. 30, 2014 Rise Set
Actual Time 6:09 AM CDT 9:20 PM CDT
Civil Twilight 5:31 AM CDT 9:58 PM CDT
Nautical Twilight 4:42 AM CDT 10:47 PM CDT
Astronomical Twilight 3:39 AM CDT 11:49 PM CDT
Moon 10:05 AM CDT 10:38 PM CDT
Length of Visible Light 16h 26m
Length of Day
15h 11m
Tomorrow will be 2m 46s shorter.
Waxing Crescent, 14% of the Moon is Illuminated
Today
Waxing Crescent
Aug 3
First Quarter
Aug 10
Full
Aug 17
Last Quarter
Aug 25
New

Today's Extremes

State Highs State Lows

Community

WunderPhotos

Upload Photos

1,739,248 photos uploaded!

Nearby

Snow Depth

Station Depth Elevation
No new snow has been reported.

Earthquake Activity

City Distance Mag. Time & Date
No recent earthquake activity has been reported nearby.
Minimum magnitude displayed is 2.5.

Coastal Water Temperatures

Place Temperature
No Stations Reporting

Nearby Weather Stations

Station Location Temp. Heat Index Dew Point Humidity Wind Precip. Elev Updated Type
RAWS TURTLE MOUNTAIN ND, Saint John, ND 79 °F 79 °F 50 °F 37% NW  at  9 mph 0.00 in / hr 1858 ft 5:22 PM CDT MADIS
Fairburn Farms, Boissevain 78.2 °F 80 °F 60 °F 53% West  at  1.0 mph 0.00 in / hr 1749 ft 6:07 PM CDT Normal
Curwen St., Cartwright 80.1 °F 81 °F 61 °F 52% NE  at  2.2 mph - / hr 1525 ft 6:12 PM CDT Normal

Show More Stations Show Fewer Stations